Time;durP1;ratioP1;P1;durP2;ratioP2;P2;SDS_P1;SDS_P2;PMS_P1;PMS_P2;Temp;Humidity;BMP_temperature;BMP_pressure;BME280_temperature;BME280_humidity;BME280_pressure;Samples;Min_cycle;Max_cycle;Signal;HPM_P1;HPM_P2
2023/12/10 00:01:15;;;;;;;13.85;12.35;;;17.00;99.90;;;;;;4592686;19;20022;-76
2023/12/10 00:03:00;;;;;;;15.07;13.55;;;16.90;99.90;;;;;;4592838;19;20474;-76
2023/12/10 00:04:39;;;;;;;14.55;12.52;;;17.00;99.90;;;;;;4592718;19;20439;-76
2023/12/10 00:06:13;;;;;;;15.20;12.30;;;17.00;99.90;;;;;;4591794;19;20074;-76
2023/12/10 00:07:48;;;;;;;14.70;12.85;;;17.00;99.90;;;;;;4592913;19;20422;-76
2023/12/10 00:09:23;;;;;;;14.25;12.82;;;17.00;99.90;;;;;;4591300;19;20017;-76
2023/12/10 00:10:57;;;;;;;15.32;12.98;;;17.00;99.90;;;;;;4592308;19;19998;-76
2023/12/10 00:12:33;;;;;;;12.98;11.60;;;17.00;99.90;;;;;;4592853;19;20025;-76
2023/12/10 00:14:08;;;;;;;13.55;12.20;;;17.00;99.90;;;;;;4592653;19;20061;-76
2023/12/10 00:15:42;;;;;;;12.98;11.68;;;17.00;99.90;;;;;;4592003;19;20003;-76
2023/12/10 00:17:16;;;;;;;14.57;12.35;;;17.00;99.90;;;;;;4592719;19;20006;-76
2023/12/10 00:18:52;;;;;;;13.18;11.63;;;16.90;99.90;;;;;;4592626;19;20419;-76
2023/12/10 00:20:26;;;;;;;12.57;11.27;;;17.00;99.90;;;;;;4592419;19;20366;-76
2023/12/10 00:22:00;;;;;;;12.48;11.27;;;17.00;99.90;;;;;;4592370;19;20014;-76
2023/12/10 00:23:36;;;;;;;13.10;11.70;;;17.00;99.90;;;;;;4592410;19;20329;-76
2023/12/10 00:25:10;;;;;;;11.95;10.75;;;17.00;99.90;;;;;;4592158;19;20082;-76
2023/12/10 00:26:45;;;;;;;12.45;11.23;;;17.00;99.90;;;;;;4592350;19;20022;-76
2023/12/10 00:28:20;;;;;;;12.50;11.20;;;17.00;99.90;;;;;;4590873;19;20007;-76
2023/12/10 00:29:55;;;;;;;11.68;10.48;;;17.00;99.90;;;;;;4592157;19;20003;-76
2023/12/10 00:31:29;;;;;;;12.32;11.13;;;17.00;99.90;;;;;;4592272;19;20002;-76
2023/12/10 00:33:04;;;;;;;12.57;11.10;;;17.00;99.90;;;;;;4592506;19;20315;-76
2023/12/10 00:34:39;;;;;;;11.95;10.63;;;17.00;99.90;;;;;;4592436;19;20032;-76
2023/12/10 00:36:15;;;;;;;11.77;10.57;;;17.00;99.90;;;;;;4591510;19;20010;-76
2023/12/10 00:37:50;;;;;;;15.63;11.43;;;17.00;99.90;;;;;;4592174;19;20220;-76
2023/12/10 00:39:24;;;;;;;12.55;11.20;;;17.00;99.90;;;;;;4591418;19;20013;-76
2023/12/10 00:40:59;;;;;;;11.82;10.25;;;17.00;99.90;;;;;;4592003;19;20028;-76
2023/12/10 00:42:34;;;;;;;11.50;10.38;;;17.00;99.90;;;;;;4592097;19;20015;-76
2023/12/10 00:44:08;;;;;;;12.18;10.98;;;17.00;99.90;;;;;;4590669;19;20003;-76
2023/12/10 00:45:42;;;;;;;11.52;10.32;;;17.00;99.90;;;;;;4591051;19;20006;-76
2023/12/10 00:47:17;;;;;;;11.07;9.98;;;17.00;99.90;;;;;;4591920;19;20026;-76
2023/12/10 00:48:52;;;;;;;12.27;10.98;;;17.10;99.90;;;;;;4591945;19;20002;-76
2023/12/10 00:50:27;;;;;;;10.93;9.82;;;17.10;99.90;;;;;;4591919;19;20003;-76
2023/12/10 00:52:02;;;;;;;10.35;9.13;;;17.10;99.90;;;;;;4590600;19;20006;-76
2023/12/10 00:53:36;;;;;;;11.57;10.35;;;17.10;99.90;;;;;;4591430;19;20484;-76
2023/12/10 00:55:10;;;;;;;11.32;10.23;;;17.10;99.90;;;;;;4595390;19;20001;-76
2023/12/10 00:56:46;;;;;;;11.68;10.20;;;17.10;99.90;;;;;;4595791;19;20015;-76
2023/12/10 00:58:20;;;;;;;12.10;10.52;;;17.10;99.90;;;;;;4596162;19;20006;-76
2023/12/10 00:59:53;;;;;;;11.32;10.23;;;17.10;99.90;;;;;;4596821;19;20002;-76
2023/12/10 01:19:22;;;;;;;11.15;10.00;;;17.10;99.90;;;;;;4552534;19;20031;-76
2023/12/10 01:20:57;;;;;;;11.45;10.25;;;17.10;99.90;;;;;;4596252;19;20014;-76
2023/12/10 01:22:31;;;;;;;11.30;10.05;;;17.10;99.90;;;;;;4596270;19;20010;-76
2023/12/10 01:24:05;;;;;;;11.07;9.98;;;17.00;99.90;;;;;;4596068;19;20364;-76
2023/12/10 01:25:42;;;;;;;10.82;9.55;;;17.00;99.90;;;;;;4595106;19;20568;-76
2023/12/10 01:27:17;;;;;;;11.10;9.90;;;17.00;99.90;;;;;;4596014;19;20418;-76
2023/12/10 01:28:51;;;;;;;11.75;10.25;;;17.00;99.90;;;;;;4596014;19;20310;-76
2023/12/10 01:30:28;;;;;;;11.05;9.32;;;17.00;99.90;;;;;;4594677;19;20014;-77
2023/12/10 01:32:04;;;;;;;12.38;10.23;;;17.00;99.90;;;;;;4595874;19;20010;-76
2023/12/10 01:33:38;;;;;;;11.43;10.27;;;16.90;99.90;;;;;;4595902;19;20023;-76
2023/12/10 01:35:14;;;;;;;10.63;9.52;;;16.90;99.90;;;;;;4595764;19;20015;-77
2023/12/10 01:36:49;;;;;;;10.27;9.18;;;16.90;99.90;;;;;;4595705;19;20003;-77
2023/12/10 01:38:23;;;;;;;11.15;9.77;;;16.80;99.90;;;;;;4595601;19;20021;-76
2023/12/10 01:39:58;;;;;;;12.45;11.13;;;16.80;99.90;;;;;;4595057;19;20077;-76
2023/12/10 01:41:32;;;;;;;10.80;9.70;;;16.80;99.90;;;;;;4595674;19;20006;-76
2023/12/10 01:43:07;;;;;;;10.68;9.57;;;16.80;99.90;;;;;;4595595;19;20006;-76
2023/12/10 01:44:42;;;;;;;10.43;9.30;;;16.80;99.90;;;;;;4595995;19;20006;-76
2023/12/10 01:46:16;;;;;;;11.07;9.93;;;16.70;99.90;;;;;;4595862;19;20354;-76
2023/12/10 01:47:50;;;;;;;12.25;9.50;;;16.70;99.90;;;;;;4595621;19;20308;-76
2023/12/10 01:49:28;;;;;;;9.80;8.80;;;16.70;99.90;;;;;;4594065;19;20011;-76
2023/12/10 01:51:02;;;;;;;11.70;10.48;;;16.70;99.90;;;;;;4595522;19;20030;-76
2023/12/10 01:52:36;;;;;;;11.25;10.05;;;16.70;99.90;;;;;;4595424;19;20095;-77
2023/12/10 01:54:23;;;;;;;11.68;9.68;;;16.70;99.90;;;;;;4594876;19;20552;-77
2023/12/10 01:55:57;;;;;;;13.15;10.25;;;16.70;99.90;;;;;;4595213;19;20003;-76
2023/12/10 01:57:34;;;;;;;10.77;9.65;;;16.70;99.90;;;;;;4594026;19;20461;-76
2023/12/10 01:59:10;;;;;;;11.73;10.18;;;16.60;99.90;;;;;;4594166;19;20010;-76
2023/12/10 02:00:44;;;;;;;11.18;9.82;;;16.60;99.90;;;;;;4593925;19;20014;-76
2023/12/10 02:02:19;;;;;;;10.85;9.30;;;16.60;99.90;;;;;;4594920;19;20326;-77
2023/12/10 02:03:55;;;;;;;12.38;10.07;;;16.60;99.90;;;;;;4595330;19;20040;-77
2023/12/10 02:05:30;;;;;;;11.65;9.73;;;16.60;99.90;;;;;;4593842;19;20018;-76
2023/12/10 02:07:04;;;;;;;9.65;8.45;;;16.60;99.90;;;;;;4593576;19;20418;-76
2023/12/10 02:08:41;;;;;;;10.73;9.43;;;16.50;99.90;;;;;;4595373;19;20007;-76
2023/12/10 02:10:14;;;;;;;11.73;9.80;;;16.50;99.90;;;;;;4593738;19;20018;-77
2023/12/10 02:11:48;;;;;;;10.82;9.38;;;16.50;99.90;;;;;;4593712;19;19995;-76
2023/12/10 02:13:24;;;;;;;11.13;9.80;;;16.50;99.90;;;;;;4594730;19;20032;-76
2023/12/10 02:14:59;;;;;;;11.00;9.90;;;16.50;99.90;;;;;;4593634;19;19999;-76
2023/12/10 02:16:33;;;;;;;10.73;9.25;;;16.50;99.90;;;;;;4594605;19;20363;-77
2023/12/10 02:18:09;;;;;;;11.23;9.50;;;16.50;99.90;;;;;;4593924;19;20018;-76
2023/12/10 02:19:43;;;;;;;10.40;9.30;;;16.50;99.90;;;;;;4592542;19;20404;-76
2023/12/10 02:21:17;;;;;;;9.45;8.55;;;16.40;99.90;;;;;;4594956;19;20070;-77
2023/12/10 02:23:11;;;;;;;10.95;8.88;;;16.40;99.90;;;;;;4594020;19;20006;-77
2023/12/10 02:24:52;;;;;;;11.20;9.38;;;16.40;99.90;;;;;;4594737;19;20010;-76
2023/12/10 02:26:27;;;;;;;9.95;8.57;;;16.40;99.90;;;;;;4593455;19;20044;-76
2023/12/10 02:28:05;;;;;;;10.20;8.65;;;16.40;99.90;;;;;;4593803;19;20391;-76
2023/12/10 02:29:40;;;;;;;10.90;9.55;;;16.40;99.90;;;;;;4593128;19;20010;-76
2023/12/10 02:31:14;;;;;;;10.60;9.50;;;16.40;99.90;;;;;;4594320;19;20026;-76
2023/12/10 02:32:48;;;;;;;10.68;9.50;;;16.40;99.90;;;;;;4594661;19;20022;-76
2023/12/10 02:34:25;;;;;;;10.25;9.15;;;16.30;99.90;;;;;;4594618;19;20010;-76
2023/12/10 02:35:59;;;;;;;10.65;9.65;;;16.30;99.90;;;;;;4593377;19;20006;-76
2023/12/10 02:37:34;;;;;;;10.10;8.73;;;16.30;99.90;;;;;;4594518;19;20019;-76
2023/12/10 02:39:10;;;;;;;12.52;9.32;;;16.30;99.90;;;;;;4593798;19;20006;-76
2023/12/10 02:40:44;;;;;;;11.10;9.45;;;16.30;99.90;;;;;;4594858;19;20023;-76
2023/12/10 02:42:18;;;;;;;10.95;9.43;;;16.30;99.90;;;;;;4594441;19;20320;-76
2023/12/10 02:43:54;;;;;;;9.43;7.90;;;16.30;99.90;;;;;;4595209;19;20422;-76
2023/12/10 02:45:30;;;;;;;10.35;8.40;;;16.30;99.90;;;;;;4594657;19;20007;-76
2023/12/10 02:47:05;;;;;;;11.73;9.25;;;16.30;99.90;;;;;;4594384;19;20007;-76
2023/12/10 02:48:40;;;;;;;10.93;9.15;;;16.30;99.90;;;;;;4594646;19;20011;-76
2023/12/10 02:50:13;;;;;;;10.70;9.27;;;16.30;99.90;;;;;;4593108;19;20014;-77
2023/12/10 02:51:47;;;;;;;11.10;8.25;;;16.30;99.90;;;;;;4594540;19;20002;-76
2023/12/10 02:53:24;;;;;;;9.55;8.55;;;16.20;99.90;;;;;;4594282;19;20003;-76
2023/12/10 02:54:58;;;;;;;9.25;7.95;;;16.30;99.90;;;;;;4594473;19;20026;-76
2023/12/10 02:56:32;;;;;;;10.80;9.32;;;16.20;99.90;;;;;;4594211;19;20003;-76
2023/12/10 02:58:08;;;;;;;9.60;8.57;;;16.20;99.90;;;;;;4594170;19;20007;-76
2023/12/10 02:59:42;;;;;;;9.43;8.15;;;16.20;99.90;;;;;;4592900;19;20007;-76
2023/12/10 03:01:16;;;;;;;9.35;8.35;;;16.20;99.90;;;;;;4594042;19;20003;-76
2023/12/10 03:02:51;;;;;;;9.80;8.10;;;16.20;99.90;;;;;;4594410;19;20437;-76
2023/12/10 03:04:25;;;;;;;9.63;8.57;;;16.20;99.90;;;;;;4593941;19;20074;-76
2023/12/10 03:05:59;;;;;;;11.70;8.93;;;16.20;99.90;;;;;;4594240;19;20022;-76
2023/12/10 03:07:35;;;;;;;10.25;9.15;;;16.20;99.90;;;;;;4594026;19;20002;-76
2023/12/10 03:09:09;;;;;;;14.25;9.73;;;16.20;99.90;;;;;;4594015;19;20007;-77
2023/12/10 03:10:43;;;;;;;9.95;8.75;;;16.10;99.90;;;;;;4593804;19;20069;-76
2023/12/10 03:12:19;;;;;;;10.40;8.93;;;16.20;99.90;;;;;;4593815;19;20018;-76
2023/12/10 03:13:54;;;;;;;9.18;8.25;;;16.20;99.90;;;;;;4593846;19;20011;-76
2023/12/10 03:15:28;;;;;;;8.63;7.72;;;16.10;99.90;;;;;;4594018;19;20073;-76
2023/12/10 03:17:03;;;;;;;8.88;7.88;;;16.10;99.90;;;;;;4593778;19;20011;-76
2023/12/10 03:18:37;;;;;;;9.32;8.32;;;16.10;99.90;;;;;;4591218;19;20003;-76
2023/12/10 03:20:12;;;;;;;9.20;8.20;;;16.10;99.90;;;;;;4592509;19;20105;-77
2023/12/10 03:21:47;;;;;;;10.13;8.60;;;16.10;99.90;;;;;;4592413;19;20022;-76
2023/12/10 03:23:22;;;;;;;9.45;8.43;;;16.10;99.90;;;;;;4593271;19;20034;-76
2023/12/10 03:24:56;;;;;;;9.40;8.40;;;16.10;99.90;;;;;;4593576;19;20006;-76
2023/12/10 03:26:31;;;;;;;10.70;8.98;;;16.00;99.90;;;;;;4593679;19;20006;-76
2023/12/10 03:28:05;;;;;;;11.20;9.20;;;16.00;99.90;;;;;;4593853;19;20448;-76
2023/12/10 03:29:39;;;;;;;9.70;8.55;;;16.00;99.90;;;;;;4592987;19;20007;-76
2023/12/10 03:31:15;;;;;;;8.93;8.02;;;16.00;99.90;;;;;;4593362;19;20029;-76
2023/12/10 03:32:49;;;;;;;9.55;8.43;;;16.10;99.90;;;;;;4593478;19;20100;-77
2023/12/10 03:34:25;;;;;;;10.45;9.02;;;16.00;99.90;;;;;;4593683;19;20007;-76
2023/12/10 03:36:01;;;;;;;8.93;8.02;;;16.00;99.90;;;;;;4593433;19;20029;-76
2023/12/10 03:37:36;;;;;;;8.75;7.65;;;16.00;99.90;;;;;;4593228;19;20048;-76
2023/12/10 03:39:10;;;;;;;9.07;8.18;;;16.00;99.90;;;;;;4592697;19;20438;-76
2023/12/10 03:40:45;;;;;;;9.13;8.23;;;16.00;99.90;;;;;;4592245;19;20011;-76
2023/12/10 03:42:20;;;;;;;9.05;8.13;;;16.00;99.90;;;;;;4592870;19;20056;-76
2023/12/10 03:43:55;;;;;;;10.30;9.20;;;16.00;99.90;;;;;;4593462;19;20467;-76
2023/12/10 03:45:30;;;;;;;9.10;8.15;;;16.00;99.90;;;;;;4593222;19;20426;-76
2023/12/10 03:47:05;;;;;;;8.70;7.82;;;16.00;99.90;;;;;;4593133;19;20003;-76
2023/12/10 03:48:40;;;;;;;8.95;8.05;;;16.00;99.90;;;;;;4591994;19;20103;-76
2023/12/10 03:50:17;;;;;;;10.77;7.95;;;15.90;99.90;;;;;;4591810;19;20476;-76
2023/12/10 03:51:51;;;;;;;9.13;7.93;;;16.00;99.90;;;;;;4591805;19;20006;-76
2023/12/10 03:53:25;;;;;;;9.50;8.20;;;15.90;99.90;;;;;;4591634;19;20018;-76
2023/12/10 03:55:00;;;;;;;10.95;8.15;;;15.90;99.90;;;;;;4593124;19;20013;-76
2023/12/10 03:56:34;;;;;;;10.30;8.25;;;15.90;99.90;;;;;;4592921;19;20021;-76
2023/12/10 03:58:08;;;;;;;9.43;8.23;;;16.00;99.90;;;;;;4592915;19;20026;-76
2023/12/10 03:59:43;;;;;;;8.90;8.00;;;16.00;99.90;;;;;;4591653;19;20006;-76
2023/12/10 04:01:18;;;;;;;9.43;8.18;;;15.90;99.90;;;;;;4593108;19;20002;-76
2023/12/10 04:02:52;;;;;;;8.23;7.22;;;15.90;99.90;;;;;;4593051;19;20073;-77
2023/12/10 04:04:28;;;;;;;10.00;8.82;;;15.90;99.90;;;;;;4592805;19;20371;-76
2023/12/10 04:06:03;;;;;;;10.00;7.78;;;15.90;99.90;;;;;;4592781;19;20088;-76
2023/12/10 04:07:37;;;;;;;8.98;7.43;;;15.90;99.90;;;;;;4591398;19;20010;-77
2023/12/10 04:09:12;;;;;;;9.55;8.15;;;15.90;99.90;;;;;;4592241;19;20006;-76
2023/12/10 04:10:47;;;;;;;8.70;7.80;;;15.90;99.90;;;;;;4592928;19;20009;-76
2023/12/10 04:12:21;;;;;;;9.40;8.35;;;15.90;99.90;;;;;;4592653;19;20019;-76
2023/12/10 04:13:56;;;;;;;9.70;7.53;;;15.90;99.90;;;;;;4592463;19;20084;-76
2023/12/10 04:15:32;;;;;;;9.02;8.13;;;15.80;99.90;;;;;;4592634;19;19998;-76
2023/12/10 04:17:06;;;;;;;9.40;8.40;;;15.80;99.90;;;;;;4591440;19;20007;-76
2023/12/10 04:18:42;;;;;;;8.02;7.22;;;15.90;99.90;;;;;;4592240;19;20007;-76
2023/12/10 04:20:16;;;;;;;8.02;7.15;;;15.80;99.90;;;;;;4591268;19;20038;-76
2023/12/10 04:21:50;;;;;;;8.25;7.45;;;15.80;99.90;;;;;;4592516;19;20002;-76
2023/12/10 04:23:28;;;;;;;9.02;7.57;;;15.80;99.90;;;;;;4592722;19;20439;-76
2023/12/10 04:25:05;;;;;;;8.20;7.40;;;15.80;99.90;;;;;;4592778;19;20377;-76
2023/12/10 04:26:39;;;;;;;8.98;8.07;;;15.80;99.90;;;;;;4592431;19;20070;-76
2023/12/10 04:28:15;;;;;;;8.15;7.18;;;15.90;99.90;;;;;;4592418;19;20014;-76
2023/12/10 04:29:51;;;;;;;8.82;7.30;;;16.00;99.90;;;;;;4590684;19;20084;-76
2023/12/10 04:31:25;;;;;;;9.27;6.95;;;16.10;99.90;;;;;;4592290;19;20014;-76
2023/12/10 04:33:01;;;;;;;8.73;7.47;;;16.20;99.90;;;;;;4592340;19;20003;-78
2023/12/10 04:34:35;;;;;;;9.27;8.38;;;16.40;99.90;;;;;;4592469;19;20009;-75
2023/12/10 04:36:10;;;;;;;8.35;7.50;;;16.50;99.90;;;;;;4592237;19;20330;-76
2023/12/10 04:37:46;;;;;;;7.88;7.05;;;16.60;99.90;;;;;;4592311;19;20287;-77
2023/12/10 04:39:25;;;;;;;8.05;7.18;;;16.70;99.90;;;;;;4590840;19;20007;-75
2023/12/10 04:40:59;;;;;;;7.97;6.90;;;16.80;99.90;;;;;;4592131;19;20002;-76
2023/12/10 04:42:42;;;;;;;9.45;7.70;;;16.80;99.90;;;;;;4592220;19;20017;-75
2023/12/10 04:44:17;;;;;;;7.53;6.43;;;16.90;99.90;;;;;;4591104;19;20010;-75
2023/12/10 04:45:51;;;;;;;10.18;7.20;;;17.00;99.90;;;;;;4591964;19;20003;-75
2023/12/10 04:47:26;;;;;;;8.13;7.10;;;17.00;99.90;;;;;;4592512;19;20030;-75
2023/12/10 04:49:00;;;;;;;8.57;7.50;;;17.10;99.90;;;;;;4592013;19;20002;-75
2023/12/10 04:50:34;;;;;;;7.95;7.03;;;17.10;99.90;;;;;;4589697;19;20006;-75
2023/12/10 04:52:10;;;;;;;8.25;7.45;;;17.20;99.90;;;;;;4591981;19;20007;-75
2023/12/10 04:53:44;;;;;;;8.27;6.97;;;17.20;99.90;;;;;;4591814;19;20014;-75
2023/12/10 04:55:19;;;;;;;7.75;6.90;;;17.20;99.90;;;;;;4591857;19;20002;-75
2023/12/10 04:56:54;;;;;;;7.50;6.80;;;17.20;99.90;;;;;;4592211;19;20294;-75
2023/12/10 04:58:30;;;;;;;7.40;6.55;;;17.30;99.90;;;;;;4591686;19;19999;-75
2023/12/10 05:00:06;;;;;;;7.78;6.85;;;17.30;99.90;;;;;;4591323;19;20011;-75
2023/12/10 05:01:44;;;;;;;6.88;6.18;;;17.30;99.90;;;;;;4592212;19;20007;-75
2023/12/10 05:03:18;;;;;;;7.20;6.50;;;17.30;99.90;;;;;;4592045;19;20010;-75
2023/12/10 05:04:53;;;;;;;6.80;6.10;;;17.30;99.90;;;;;;4592060;19;19999;-75
2023/12/10 05:06:28;;;;;;;7.05;6.30;;;17.30;99.90;;;;;;4592097;19;20389;-75
2023/12/10 05:08:02;;;;;;;8.15;6.60;;;17.30;99.90;;;;;;4591971;19;20078;-75
2023/12/10 05:09:37;;;;;;;6.55;5.85;;;17.30;99.90;;;;;;4591413;19;20014;-75
2023/12/10 05:11:12;;;;;;;7.03;6.07;;;17.30;99.90;;;;;;4591744;19;20006;-76
2023/12/10 05:12:46;;;;;;;6.57;5.85;;;17.30;99.90;;;;;;4590618;19;20003;-76
2023/12/10 05:14:21;;;;;;;8.07;6.60;;;17.40;99.90;;;;;;4591277;19;19999;-76
2023/12/10 05:15:57;;;;;;;7.78;7.05;;;17.40;99.90;;;;;;4591925;19;20074;-76
2023/12/10 05:17:32;;;;;;;10.00;9.02;;;17.40;99.90;;;;;;4591828;19;20007;-76
2023/12/10 05:19:07;;;;;;;10.00;9.00;;;17.40;99.90;;;;;;4590803;19;20013;-77
2023/12/10 05:20:43;;;;;;;10.80;9.77;;;17.40;99.90;;;;;;4590274;19;20042;-76
2023/12/10 05:22:17;;;;;;;10.05;9.15;;;17.30;99.90;;;;;;4591400;19;20006;-76
2023/12/10 05:23:50;;;;;;;10.77;9.77;;;17.40;99.90;;;;;;4591322;19;20018;-76
2023/12/10 05:25:30;;;;;;;9.70;8.80;;;17.30;99.90;;;;;;4591527;19;20310;-76
2023/12/10 05:27:04;;;;;;;9.73;8.77;;;17.30;99.90;;;;;;4590369;19;20011;-75
2023/12/10 05:28:38;;;;;;;10.27;9.38;;;17.30;99.90;;;;;;4591020;19;20066;-76
2023/12/10 05:30:15;;;;;;;10.25;9.35;;;17.30;99.90;;;;;;4591030;19;20074;-75
2023/12/10 05:31:50;;;;;;;10.35;9.35;;;17.30;99.90;;;;;;4591318;19;20444;-75
2023/12/10 05:33:24;;;;;;;12.07;10.25;;;17.20;99.90;;;;;;4591327;19;20461;-76
2023/12/10 05:35:00;;;;;;;9.43;8.52;;;17.20;99.90;;;;;;4591557;19;20433;-76
2023/12/10 05:36:34;;;;;;;9.25;8.45;;;17.20;99.90;;;;;;4591479;19;20003;-76
2023/12/10 05:38:09;;;;;;;9.55;8.02;;;17.30;99.90;;;;;;4591295;19;20025;-76
2023/12/10 05:39:45;;;;;;;8.27;7.47;;;17.30;99.90;;;;;;4588599;19;20013;-77
2023/12/10 05:41:20;;;;;;;7.93;6.47;;;17.40;99.90;;;;;;4591823;19;20006;-77
2023/12/10 05:42:55;;;;;;;8.52;6.75;;;17.60;99.90;;;;;;4595981;19;19998;-77
2023/12/10 05:44:30;;;;;;;7.28;6.57;;;17.60;99.90;;;;;;4596162;19;20026;-76
2023/12/10 05:46:04;;;;;;;8.05;7.25;;;17.70;99.90;;;;;;4594280;19;20396;-76
2023/12/10 05:47:38;;;;;;;7.75;7.05;;;17.90;99.90;;;;;;4595493;19;20002;-76
2023/12/10 05:49:13;;;;;;;8.45;7.65;;;18.00;99.90;;;;;;4595385;19;20006;-76
2023/12/10 05:50:48;;;;;;;8.88;7.32;;;18.00;99.90;;;;;;4594175;19;20014;-76
2023/12/10 05:52:23;;;;;;;8.57;7.72;;;18.10;99.90;;;;;;4595116;19;20065;-76
2023/12/10 05:53:58;;;;;;;9.40;8.50;;;18.20;99.90;;;;;;4595781;19;20006;-76
2023/12/10 05:55:32;;;;;;;9.38;8.48;;;18.20;99.90;;;;;;4594155;19;20005;-76
2023/12/10 05:57:06;;;;;;;10.43;9.40;;;18.20;99.90;;;;;;4594913;19;20014;-76
2023/12/10 05:58:41;;;;;;;10.52;9.55;;;18.20;99.90;;;;;;4595122;19;20038;-76
2023/12/10 06:00:16;;;;;;;11.52;10.38;;;18.20;99.90;;;;;;4592900;19;20040;-76
2023/12/10 06:01:50;;;;;;;10.27;9.38;;;18.20;99.90;;;;;;4594970;19;20016;-76
2023/12/10 06:03:27;;;;;;;10.25;9.27;;;18.20;99.90;;;;;;4595344;19;20006;-76
2023/12/10 06:05:01;;;;;;;11.13;9.93;;;18.20;99.90;;;;;;4595155;19;20024;-76
2023/12/10 06:06:36;;;;;;;10.68;9.32;;;18.20;99.90;;;;;;4595286;19;20082;-76
2023/12/10 06:08:11;;;;;;;10.90;9.85;;;18.10;99.90;;;;;;4595222;19;20013;-76
2023/12/10 06:09:46;;;;;;;10.95;9.95;;;18.10;99.90;;;;;;4594382;19;20010;-76
2023/12/10 06:11:21;;;;;;;11.13;10.02;;;18.10;99.90;;;;;;4595095;19;20302;-75
2023/12/10 06:12:56;;;;;;;10.98;9.90;;;18.00;99.90;;;;;;4595139;19;20007;-76
2023/12/10 06:14:31;;;;;;;11.68;10.13;;;18.00;99.90;;;;;;4593958;19;20026;-76
2023/12/10 06:16:07;;;;;;;11.18;10.18;;;17.90;99.90;;;;;;4594921;19;20002;-76
2023/12/10 06:17:43;;;;;;;10.90;9.80;;;17.90;99.90;;;;;;4595324;19;20014;-76
2023/12/10 06:19:17;;;;;;;12.35;10.55;;;17.90;99.90;;;;;;4594146;19;20003;-76
2023/12/10 06:20:51;;;;;;;11.57;10.50;;;17.80;99.90;;;;;;4593435;19;20042;-76
2023/12/10 06:22:28;;;;;;;12.88;10.48;;;17.80;99.90;;;;;;4594828;19;20458;-76
2023/12/10 06:24:03;;;;;;;13.30;10.75;;;17.80;99.90;;;;;;4594809;19;20445;-76
2023/12/10 06:25:36;;;;;;;11.25;10.07;;;17.80;99.90;;;;;;4595081;19;20007;-76
2023/12/10 06:27:12;;;;;;;11.82;10.60;;;17.70;99.90;;;;;;4595109;19;20006;-76
2023/12/10 06:28:47;;;;;;;12.98;10.65;;;17.70;99.90;;;;;;4594768;19;20004;-76
2023/12/10 06:30:22;;;;;;;12.13;11.05;;;17.60;99.90;;;;;;4593403;19;20019;-76
2023/12/10 06:31:58;;;;;;;12.52;11.32;;;17.60;99.90;;;;;;4593281;19;20300;-76
2023/12/10 06:33:32;;;;;;;12.98;11.00;;;17.60;99.90;;;;;;4594558;19;20081;-76
2023/12/10 06:35:08;;;;;;;11.65;10.45;;;17.60;99.90;;;;;;4594850;19;20022;-77
2023/12/10 06:36:44;;;;;;;11.15;10.05;;;17.50;99.90;;;;;;4594645;19;20303;-80
2023/12/10 06:38:17;;;;;;;11.32;10.18;;;17.60;99.90;;;;;;4594426;19;20095;-77
2023/12/10 06:39:52;;;;;;;331.50;102.88;;;17.50;99.90;;;;;;4593062;19;20023;-76
2023/12/10 06:41:27;;;;;;;275.40;82.82;;;17.60;99.90;;;;;;4593308;19;19998;-77
2023/12/10 06:43:01;;;;;;;219.70;64.60;;;17.60;99.90;;;;;;4594113;19;20002;-76
2023/12/10 06:44:36;;;;;;;156.43;54.78;;;17.60;99.90;;;;;;4594618;19;19994;-76
2023/12/10 06:46:13;;;;;;;120.97;43.13;;;17.60;99.90;;;;;;4594673;19;20087;-77
2023/12/10 06:47:47;;;;;;;111.70;37.42;;;17.60;99.90;;;;;;4594355;19;20035;-76
2023/12/10 06:49:21;;;;;;;86.25;34.90;;;17.70;99.90;;;;;;4593954;19;19998;-78
2023/12/10 06:50:57;;;;;;;72.40;31.50;;;17.60;99.90;;;;;;4594598;19;20002;-77
2023/12/10 06:52:31;;;;;;;68.07;26.45;;;17.70;99.90;;;;;;4592334;19;20352;-78
2023/12/10 06:54:09;;;;;;;52.83;23.88;;;17.70;99.90;;;;;;4594127;19;20301;-77
2023/12/10 06:55:45;;;;;;;59.35;24.88;;;17.70;99.90;;;;;;4594168;19;20044;-79
2023/12/10 06:57:19;;;;;;;45.03;23.02;;;17.70;99.90;;;;;;4594141;19;20013;-76
2023/12/10 06:58:53;;;;;;;43.70;23.63;;;17.70;99.90;;;;;;4593729;19;20022;-74
2023/12/10 07:00:28;;;;;;;49.50;24.45;;;17.60;99.90;;;;;;4592839;19;20010;-77
2023/12/10 07:02:03;;;;;;;41.05;22.73;;;17.60;99.90;;;;;;4594034;19;20088;-78
2023/12/10 07:03:37;;;;;;;38.42;22.17;;;17.60;99.90;;;;;;4592694;19;20006;-79
2023/12/10 07:05:12;;;;;;;40.40;23.17;;;17.60;99.90;;;;;;4593634;19;20006;-76
2023/12/10 07:06:47;;;;;;;41.28;21.52;;;17.60;99.90;;;;;;4593964;19;19998;-76
2023/12/10 07:08:21;;;;;;;41.53;22.55;;;17.60;99.90;;;;;;4593921;19;20503;-78
2023/12/10 07:09:57;;;;;;;37.05;22.83;;;17.60;99.90;;;;;;4593032;19;20031;-78
2023/12/10 07:11:31;;;;;;;41.00;21.63;;;17.60;99.90;;;;;;4594110;19;20026;-78
2023/12/10 07:13:05;;;;;;;44.85;22.33;;;17.50;99.90;;;;;;4593840;19;19998;-77
2023/12/10 07:14:40;;;;;;;49.92;23.23;;;17.60;99.90;;;;;;4593857;19;20006;-79
2023/12/10 07:16:15;;;;;;;39.42;21.90;;;17.50;99.90;;;;;;4594036;19;20414;-75
2023/12/10 07:17:49;;;;;;;36.85;22.35;;;17.50;99.90;;;;;;4593733;19;20002;-76
2023/12/10 07:19:24;;;;;;;37.72;21.80;;;17.50;99.90;;;;;;4593060;19;19995;-74
2023/12/10 07:21:00;;;;;;;39.10;22.20;;;17.50;99.90;;;;;;4594466;19;20375;-76
2023/12/10 07:22:34;;;;;;;43.78;23.00;;;17.40;99.90;;;;;;4593596;19;20088;-76
2023/12/10 07:24:08;;;;;;;36.33;21.90;;;17.50;99.90;;;;;;4593544;19;20009;-76
2023/12/10 07:25:44;;;;;;;38.78;21.55;;;17.40;99.90;;;;;;4593519;19;20010;-76
2023/12/10 07:27:18;;;;;;;38.88;21.17;;;17.40;99.90;;;;;;4593820;19;20005;-76
2023/12/10 07:28:52;;;;;;;34.83;19.35;;;17.40;99.90;;;;;;4591995;19;20456;-75
2023/12/10 07:30:28;;;;;;;42.88;22.70;;;17.40;99.90;;;;;;4592245;19;20074;-76
2023/12/10 07:32:02;;;;;;;34.90;20.52;;;17.30;99.90;;;;;;4593420;19;20006;-76
2023/12/10 07:33:37;;;;;;;37.15;21.30;;;17.30;99.90;;;;;;4593361;19;20003;-76
2023/12/10 07:35:13;;;;;;;40.47;22.50;;;17.30;99.90;;;;;;4592412;19;20007;-76
2023/12/10 07:36:48;;;;;;;36.63;21.17;;;17.30;99.90;;;;;;4593003;19;20422;-76
2023/12/10 07:38:22;;;;;;;39.17;21.75;;;17.30;99.90;;;;;;4593568;19;20002;-76
2023/12/10 07:39:58;;;;;;;33.95;20.92;;;17.20;99.90;;;;;;4591995;19;20029;-75
2023/12/10 07:41:33;;;;;;;34.30;20.98;;;17.20;99.90;;;;;;4593143;19;20021;-76
2023/12/10 07:43:09;;;;;;;39.67;21.40;;;17.20;99.90;;;;;;4593175;19;20335;-76
2023/12/10 07:44:47;;;;;;;36.03;21.05;;;17.20;99.90;;;;;;4593242;19;20006;-76
2023/12/10 07:46:21;;;;;;;33.30;19.30;;;17.10;99.90;;;;;;4593183;19;20002;-76
2023/12/10 07:47:54;;;;;;;37.20;21.65;;;17.10;99.90;;;;;;4592070;19;20006;-77
2023/12/10 07:49:30;;;;;;;33.92;20.02;;;17.10;99.90;;;;;;4592613;19;20006;-76
2023/12/10 07:51:04;;;;;;;32.28;19.48;;;17.10;99.90;;;;;;4593002;19;20009;-76
2023/12/10 07:52:38;;;;;;;35.10;20.50;;;17.10;99.90;;;;;;4593000;19;20006;-77
2023/12/10 07:54:13;;;;;;;38.28;20.02;;;17.10;99.90;;;;;;4592992;19;20366;-77
2023/12/10 07:55:47;;;;;;;35.85;20.38;;;17.00;99.90;;;;;;4593186;19;20454;-77
2023/12/10 07:57:21;;;;;;;34.10;19.20;;;17.00;99.90;;;;;;4592784;19;20082;-76
2023/12/10 07:58:57;;;;;;;31.45;19.40;;;17.00;99.90;;;;;;4592624;19;20090;-77
2023/12/10 08:00:32;;;;;;;35.47;19.52;;;17.00;99.90;;;;;;4591714;19;20002;-77
2023/12/10 08:02:06;;;;;;;41.72;20.40;;;17.00;99.90;;;;;;4592803;19;20026;-77
2023/12/10 08:03:41;;;;;;;36.65;19.88;;;16.90;99.90;;;;;;4592098;19;20069;-77
2023/12/10 08:05:16;;;;;;;30.42;19.77;;;16.90;99.90;;;;;;4592416;19;20368;-77
2023/12/10 08:06:51;;;;;;;32.90;20.00;;;16.90;99.90;;;;;;4592765;19;20006;-77
2023/12/10 08:08:27;;;;;;;27.52;18.48;;;16.90;99.90;;;;;;4592763;19;20023;-77
2023/12/10 08:10:02;;;;;;;32.85;20.05;;;16.80;99.90;;;;;;4592191;19;20421;-77
2023/12/10 08:11:36;;;;;;;29.38;17.98;;;16.80;99.90;;;;;;4592864;19;20006;-76
2023/12/10 08:13:12;;;;;;;32.08;18.45;;;16.80;99.90;;;;;;4591401;19;20032;-76
2023/12/10 08:14:47;;;;;;;33.10;19.65;;;16.80;99.90;;;;;;4592495;19;20081;-76
2023/12/10 08:16:20;;;;;;;36.85;19.30;;;16.80;99.90;;;;;;4592832;19;20009;-77
2023/12/10 08:17:56;;;;;;;34.30;19.17;;;16.70;99.90;;;;;;4592659;19;20005;-78
2023/12/10 08:19:30;;;;;;;32.10;18.30;;;16.70;99.90;;;;;;4591359;19;20009;-77
2023/12/10 08:21:04;;;;;;;28.00;18.88;;;16.70;99.90;;;;;;4591419;19;20023;-77
2023/12/10 08:22:40;;;;;;;32.47;19.08;;;16.70;99.90;;;;;;4592124;19;20002;-76
2023/12/10 08:24:15;;;;;;;31.05;17.13;;;16.70;99.90;;;;;;4592353;19;20010;-77
2023/12/10 08:25:50;;;;;;;26.90;17.17;;;16.80;99.90;;;;;;4592412;19;20003;-77